AirNav   Everest Fuels
 
 1277 users online  

PS83 GlaxoSmithKline LLC Heliport
Upper Merion Township, Pennsylvania, USA

GOING TO UPPER MERION TOWNSHIP?


FAA INFORMATION EFFECTIVE 07 NOVEMBER 2019

Location

FAA Identifier: PS83
Lat/Long: 40-04-47.3930N 075-19-42.6630W
40-04.789883N 075-19.711050W
40.0798314,-75.3285175
(estimated)
Elevation: 200 ft. / 61 m (estimated)
Variation: 11W (1986)
From city: 2 miles SE of UPPER MERION TOWNSHIP, PA
Time zone: UTC -5 (UTC -4 during Daylight Saving Time)
Zip code: 19428

Heliport Operations

Heliport use: Private use. Permission required prior to landing
Activation date: 04/1986
Control tower: no
ARTCC: NEW YORK CENTER
FSS: WILLIAMSPORT FLIGHT SERVICE STATION
Attendance: UNATNDD
Wind indicator: yes
Segmented circle: no

Heliport Communications

WX AWOS-3 at LOM (5 nm NE): 118.925 (215-646-1068)
WX AWOS-3T at OQN (13 nm SW): 121.4 ((610) 692-6190)
WX ASOS at PHL (13 nm S): PHONE 215-492-9617
WX ASOS at PTW (14 nm NW): 119.425 (610-495-0823)
WX ASOS at PNE (15 nm E): PHONE 215-677-0146
WX ASOS at DYL (18 nm NE): 118.875 (215-345-0392)
WX AWOS-3 at CKZ (19 nm N): 126.325 (215-257-7291)

Nearby radio navigation aids

VOR radial/distance  VOR name  Freq  Var
PTWr138/13.6POTTSTOWN VORTAC116.5009W
MXEr067/18.5MODENA VORTAC113.2009W
ARDr252/21.9YARDLEY VOR/DME108.2010W
OODr007/26.7WOODSTOWN VORTAC112.8010W
DQOr038/27.3DUPONT VORTAC114.0010W
GXUr289/33.9MC GUIRE VORTAC110.6012W
ETXr161/34.2EAST TEXAS VOR/DME110.2009W
VCNr343/36.5CEDAR LAKE VOR/DME115.2010W
RBVr269/38.9ROBBINSVILLE VORTAC113.8010W
FJCr182/39.2ALLENTOWN VORTAC117.5010W

 
NDB name  Hdg/Dist  Freq  Var  ID
AMBLER228/3.427512WING .. -. --.

Heliport Services

Runway Information

Helipad H1

Dimensions: 65 x 65 ft. / 20 x 20 m
Surface: asphalt
Traffic pattern: leftleft

Heliport Ownership and Management from official FAA records

Ownership: Privately-owned
Owner: GLAXOSMITHKLINE, LLC
709 SWEDELAND RD
KING OF PRUSSIA, PA 19406
Phone 610-270-7300
Manager: JOHN DACOSTA
709 SWEDELAND RD
KING OF PRUSSIA, PA 19406
Phone 484-880-8525

Additional Remarks

FOR CD CTC PHILADELPHIA APCH AT 800-354-9884.

Instrument Procedures

There are no published instrument procedures at PS83.

Some nearby airports with instrument procedures:

KLOM - Wings Field Airport (5 nm NE)
N10 - Perkiomen Valley Airport (9 nm NW)
KOQN - Brandywine Regional Airport (13 nm SW)
KPHL - Philadelphia International Airport (13 nm S)
KPTW - Heritage Field Airport (14 nm NW)
KPNE - Northeast Philadelphia Airport (15 nm E)
KDYL - Doylestown Airport (18 nm NE)
KCKZ - Pennridge Airport (19 nm N)
N47 - Pottstown Municipal Airport (19 nm NW)
 
Loc | Ops | Rwys | IFR | FBO | Links
Com | Nav | Svcs | Stats | Notes
Area around PS83 (GlaxoSmithKline LLC Heliport)
 
Road maps at: MapQuest Bing Google
 
Aerial photo
No photo
 
Sectional chart

 
Airport distance calculator
Flying to GlaxoSmithKline LLC Heliport? Find the distance to fly.

From to PS83

Sunrise and sunset
Times for 21-Nov-2019
 Local
(UTC-5)
 Zulu
(UTC)
Morning civil twilight06:2511:25
Sunrise06:5411:54
Sunset16:4021:40
Evening civil twilight17:0922:09

Current date and time
Zulu (UTC)  21-Nov-2019 14:48:42
Local (UTC-5)  21-Nov-2019 09:48:42
 
METAR
KLOM 
5nm NE 
211435Z AUTO 35004KT 10SM CLR 08/01 A3023 RMK AO2 T00800008
KOQN 
13nm SW 
211435Z AUTO 30006KT 10SM 07/00 A3023 RMK AO2
KPHL 
14nm S 
211354Z 32003KT 10SM FEW050 FEW270 07/M01 A3024 RMK AO2 SLP239 T00721006
KPTW 
14nm NW 
211354Z AUTO 30006KT 7SM CLR 06/M01 A3024 RMK AO2 SLP238 T00561006
KPNE 
14nm E 
211354Z 31004KT 10SM CLR 09/01 A3024 RMK AO2 SLP240 T00890006
KDYL 
18nm NE 
211354Z AUTO 00000KT 10SM CLR 08/00 A3021 RMK AO2 SLP234 T00780000
KCKZ 
19nm N 
211435Z AUTO 01006KT 10SM CLR 08/00 A3022 RMK AO2
TAF
KPHL 
14nm S 
211120Z 2112/2218 31006KT P6SM SKC FM211700 27007KT P6SM SCT200 FM212200 22007KT P6SM BKN200 FM220900 22007KT P6SM OVC080 FM221600 26010G18KT P6SM OVC040
KPNE 
14nm E 
211120Z 2112/2212 32006KT P6SM SCT040 FM211700 27007KT P6SM SCT200 FM212300 21005KT P6SM BKN200 FM221000 22005KT P6SM OVC070
NOTAMs
Click for the latest NOTAMs
NOTAMs are issued by the DoD/FAA and will open in a separate window not controlled by AirNav.

 

 
 

Would you like to see your business listed on this page?

 If your business provides an interesting product or service to pilots, flight crews, aircraft, or users of the GlaxoSmithKline LLC Heliport, you should consider listing it here.  To start the listing process, click on the button below
 
Add a business
 

Other Pages about GlaxoSmithKline LLC Heliport

Update a link
 
Copyright © AirNav, LLC. All rights reserved. Privacy Policy  Contact